Time;durP1;ratioP1;P1;durP2;ratioP2;P2;SDS_P1;SDS_P2;PMS_P1;PMS_P2;Temp;Humidity;BMP_temperature;BMP_pressure;BME280_temperature;BME280_humidity;BME280_pressure;Samples;Min_cycle;Max_cycle;Signal;HPM_P1;HPM_P2
2021/07/10 00:01:25;;;;;;;0.30;0.20;;;21.20;99.90;;;20.63;65.93;100643.81;4989199;28;20039;-61
2021/07/10 00:03:50;;;;;;;1.85;0.20;;;21.10;99.90;;;20.70;65.63;100649.91;4989215;28;20034;-60
2021/07/10 00:06:16;;;;;;;1.17;0.20;;;21.20;99.90;;;20.77;65.34;100642.78;4989141;28;20067;-58
2021/07/10 00:08:42;;;;;;;0.98;0.22;;;21.20;99.90;;;20.81;65.49;100639.47;4988876;28;20429;-58
2021/07/10 00:11:11;;;;;;;1.58;0.20;;;21.30;99.90;;;20.79;65.45;100633.59;4989392;28;20478;-59
2021/07/10 00:13:37;;;;;;;3.03;0.20;;;21.30;99.90;;;20.67;66.34;100635.25;4988906;28;20136;-63
2021/07/10 00:16:03;;;;;;;1.85;0.20;;;21.20;99.90;;;20.65;66.19;100631.19;4988967;28;20089;-57
2021/07/10 00:18:29;;;;;;;0.68;0.20;;;21.20;99.90;;;20.59;66.20;100632.81;4988798;28;20030;-58
2021/07/10 00:20:55;;;;;;;0.70;0.25;;;21.10;99.90;;;20.57;66.55;100626.91;4988990;28;20139;-55
2021/07/10 00:23:21;;;;;;;0.75;0.20;;;21.10;99.90;;;20.65;66.22;100621.41;4988749;28;20486;-57
2021/07/10 00:25:47;;;;;;;1.38;0.25;;;21.10;99.90;;;20.60;66.36;100629.16;4987156;28;20149;-53
2021/07/10 00:28:13;;;;;;;2.47;0.20;;;21.10;99.90;;;20.56;66.73;100622.63;4988962;28;20088;-56
2021/07/10 00:30:48;;;;;;;1.77;0.20;;;21.10;99.90;;;20.56;66.69;100622.63;4988620;28;20061;-53
2021/07/10 00:33:14;;;;;;;0.50;0.30;;;21.10;99.90;;;20.61;66.21;100614.91;4988880;28;20041;-55
2021/07/10 00:35:47;;;;;;;2.35;0.20;;;21.10;99.90;;;20.63;66.76;100622.63;4988213;28;20445;-54
2021/07/10 00:38:13;;;;;;;0.70;0.20;;;21.10;99.90;;;20.66;66.49;100620.38;4988429;28;20041;-62
2021/07/10 00:40:39;;;;;;;0.40;0.20;;;21.10;99.90;;;20.71;66.35;100625.06;4988193;28;20046;-55
2021/07/10 00:43:07;;;;;;;1.95;0.22;;;21.10;99.90;;;20.69;66.41;100619.97;4988574;28;20081;-55
2021/07/10 00:45:33;;;;;;;2.22;0.30;;;21.20;99.90;;;20.61;66.99;100625.47;4988383;28;20073;-49
2021/07/10 00:47:59;;;;;;;1.23;0.22;;;21.10;99.90;;;20.50;67.26;100623.47;4988554;28;20049;-59
2021/07/10 00:50:28;;;;;;;0.88;0.30;;;21.10;99.90;;;20.45;67.56;100631.19;4986621;28;20524;-58
2021/07/10 00:52:54;;;;;;;3.67;0.70;;;21.00;99.90;;;20.49;67.53;100627.13;4988345;28;20034;-53
2021/07/10 00:55:22;;;;;;;1.17;0.22;;;21.00;99.90;;;20.49;67.43;100622.66;4988386;28;20899;-55
2021/07/10 00:57:50;;;;;;;5.15;0.20;;;21.00;99.90;;;20.43;67.89;100617.34;4988268;28;20031;-57
2021/07/10 01:00:19;;;;;;;0.60;0.20;;;20.90;99.90;;;20.41;67.72;100622.03;4988506;28;20045;-59
2021/07/10 01:02:50;;;;;;;1.00;0.20;;;20.90;99.90;;;20.41;67.79;100616.75;4988389;28;20454;-59
2021/07/10 01:05:25;;;;;;;1.63;0.25;;;20.90;99.90;;;20.41;68.31;100619.38;4988558;28;20080;-56
2021/07/10 01:07:53;;;;;;;4.05;0.25;;;20.90;99.90;;;20.38;68.14;100614.50;4988040;28;20040;-58
2021/07/10 01:10:20;;;;;;;1.23;0.30;;;20.90;99.90;;;20.32;68.68;100613.47;4987592;28;20073;-53
2021/07/10 01:12:52;;;;;;;5.80;0.30;;;20.90;99.90;;;20.26;69.37;100613.47;4988187;28;20069;-61
2021/07/10 01:15:22;;;;;;;2.70;0.20;;;20.80;99.90;;;20.29;69.12;100613.09;4986970;28;20042;-52
2021/07/10 01:17:49;;;;;;;3.05;0.30;;;20.80;99.90;;;20.27;69.32;100609.81;4988079;28;20462;-60
2021/07/10 01:20:19;;;;;;;3.03;0.25;;;20.80;99.90;;;20.25;69.55;100599.44;4978429;28;20126;-59
2021/07/10 01:22:47;;;;;;;0.98;0.20;;;20.80;99.90;;;20.16;70.04;100601.47;4976769;28;20035;-57
2021/07/10 01:25:18;;;;;;;0.93;0.20;;;20.70;99.90;;;20.14;70.27;100589.47;4968494;28;20058;-59
2021/07/10 01:27:45;;;;;;;2.15;0.28;;;20.60;99.90;;;20.13;70.44;100593.13;4981119;28;20149;-56
2021/07/10 01:30:15;;;;;;;1.95;0.77;;;20.60;99.90;;;20.13;70.57;100593.94;4986349;28;20120;-53
2021/07/10 01:32:46;;;;;;;1.15;0.60;;;20.60;99.90;;;20.04;71.07;100594.34;4987515;28;20434;-62
2021/07/10 01:35:15;;;;;;;2.05;0.30;;;20.60;99.90;;;20.09;70.84;100595.38;4986604;28;20045;-60
2021/07/10 01:37:44;;;;;;;0.98;0.30;;;20.60;99.90;;;20.09;71.16;100586.63;4987187;28;20046;-54
2021/07/10 01:40:14;;;;;;;1.23;0.38;;;20.60;99.90;;;20.06;71.18;100582.56;4987252;28;20421;-56
2021/07/10 01:42:40;;;;;;;3.53;0.20;;;20.60;99.90;;;19.98;71.62;100582.75;4987576;28;20038;-55
2021/07/10 01:45:08;;;;;;;3.33;0.30;;;20.50;99.90;;;20.01;71.61;100576.25;4986833;28;20459;-58
2021/07/10 01:47:34;;;;;;;5.05;0.22;;;20.60;99.90;;;19.95;72.07;100577.84;4971752;28;20054;-56
2021/07/10 01:50:00;;;;;;;1.58;0.30;;;20.50;99.90;;;19.93;72.04;100576.44;4982695;28;20038;-53
2021/07/10 01:52:25;;;;;;;1.92;0.30;;;20.50;99.90;;;19.81;72.65;100570.97;4988660;28;20081;-60
2021/07/10 01:54:51;;;;;;;2.45;0.40;;;20.40;99.90;;;19.78;72.80;100574.00;4973742;28;20050;-54
2021/07/10 01:57:19;;;;;;;0.40;0.22;;;20.40;99.90;;;19.74;72.77;100570.13;4976330;28;20054;-55
2021/07/10 01:59:45;;;;;;;1.25;0.30;;;20.30;99.90;;;19.70;72.78;100575.00;4987674;28;20549;-61
2021/07/10 02:02:11;;;;;;;4.25;0.20;;;20.30;99.90;;;19.74;72.83;100572.78;4989674;28;20038;-51
2021/07/10 02:04:52;;;;;;;1.30;0.30;;;20.30;99.90;;;19.67;73.28;100570.13;4989007;28;20390;-61
2021/07/10 02:07:18;;;;;;;0.90;0.30;;;20.20;99.90;;;19.75;73.06;100566.47;4987997;28;20058;-58
2021/07/10 02:09:44;;;;;;;2.35;0.30;;;20.20;99.90;;;19.73;73.09;100563.22;4987621;28;20402;-57
2021/07/10 02:12:13;;;;;;;2.72;0.30;;;20.30;99.90;;;19.64;73.49;100569.72;4988910;28;20086;-59
2021/07/10 02:14:39;;;;;;;0.70;0.20;;;20.20;99.90;;;19.66;73.51;100565.03;4989067;28;20046;-59
2021/07/10 02:17:10;;;;;;;2.70;0.50;;;20.20;99.90;;;19.64;73.93;100559.13;4990159;28;20030;-55
2021/07/10 02:19:36;;;;;;;0.40;0.30;;;20.20;99.90;;;19.58;73.94;100554.66;4989209;28;20117;-56
2021/07/10 02:22:05;;;;;;;2.15;0.30;;;20.20;99.90;;;19.58;74.02;100549.38;4989025;28;20161;-57
2021/07/10 02:24:35;;;;;;;1.30;0.40;;;20.10;99.90;;;19.61;74.15;100554.25;4989733;28;20104;-61
2021/07/10 02:27:02;;;;;;;3.25;0.60;;;20.10;99.90;;;19.64;73.92;100559.13;4988761;28;20065;-60
2021/07/10 02:29:28;;;;;;;0.70;0.30;;;20.10;99.90;;;19.63;73.95;100546.94;4988752;28;20033;-54
2021/07/10 02:31:54;;;;;;;0.50;0.30;;;20.20;99.90;;;19.64;74.18;100548.56;4982945;28;20035;-57
2021/07/10 02:34:20;;;;;;;7.85;0.40;;;20.10;99.90;;;19.55;74.37;100551.41;4974627;28;20046;-58
2021/07/10 02:36:46;;;;;;;2.25;0.32;;;20.10;99.90;;;19.54;74.80;100548.94;4988857;28;20037;-62
2021/07/10 02:39:13;;;;;;;1.65;0.30;;;20.10;99.90;;;19.64;74.09;100553.84;4989579;28;20402;-61
2021/07/10 02:41:39;;;;;;;1.52;0.30;;;20.10;99.90;;;19.64;74.26;100554.66;4988707;28;20070;-57
2021/07/10 02:44:16;;;;;;;1.85;0.38;;;20.20;99.90;;;19.55;74.68;100559.31;4989755;28;20058;-53
2021/07/10 02:46:42;;;;;;;3.00;0.40;;;20.10;99.90;;;19.53;74.64;100552.59;4988717;28;20045;-58
2021/07/10 02:49:08;;;;;;;1.08;0.35;;;20.10;99.90;;;19.48;74.70;100553.19;4988760;28;20030;-65
2021/07/10 02:51:34;;;;;;;1.95;0.38;;;20.00;99.90;;;19.48;74.94;100550.53;4943846;28;1273723;-56
2021/07/10 02:54:00;;;;;;;1.48;0.30;;;20.00;99.90;;;19.53;74.58;100553.41;4993996;22;20559;-62
2021/07/10 02:56:26;;;;;;;1.60;0.22;;;20.00;99.90;;;19.58;74.60;100562.56;5009792;28;20130;-57
2021/07/10 02:58:53;;;;;;;7.30;0.63;;;20.10;99.90;;;19.46;74.90;100563.13;5009960;28;20050;-59
2021/07/10 03:01:19;;;;;;;1.35;0.30;;;20.10;99.90;;;19.43;75.13;100563.53;5009804;28;20520;-53
2021/07/10 03:03:45;;;;;;;0.55;0.30;;;20.00;99.90;;;19.38;75.00;100571.22;5009543;28;20500;-59
2021/07/10 03:06:12;;;;;;;1.10;0.40;;;19.90;99.90;;;19.42;74.89;100556.63;5010158;28;20381;-60
2021/07/10 03:08:39;;;;;;;2.80;0.30;;;19.90;99.90;;;19.45;74.88;100568.63;5009642;28;20559;-56
2021/07/10 03:11:09;;;;;;;2.35;0.40;;;20.00;99.90;;;19.44;75.00;100567.78;5007917;28;20524;-56
2021/07/10 03:13:35;;;;;;;2.80;0.50;;;20.00;99.90;;;19.34;75.36;100556.81;5009483;28;20041;-56
2021/07/10 03:16:02;;;;;;;1.40;0.40;;;19.90;99.90;;;19.37;75.21;100561.72;5009533;28;20030;-60
2021/07/10 03:18:28;;;;;;;1.17;0.38;;;19.90;99.90;;;19.38;75.31;100562.50;5009350;28;20030;-57
2021/07/10 03:20:57;;;;;;;0.65;0.40;;;19.90;99.90;;;19.37;75.41;100569.63;5009655;28;20049;-50
2021/07/10 03:23:23;;;;;;;2.42;0.35;;;19.90;99.90;;;19.39;75.55;100567.59;5009387;28;20053;-50
2021/07/10 03:25:49;;;;;;;1.17;0.30;;;19.90;99.90;;;19.45;75.22;100560.69;5009380;28;20042;-61
2021/07/10 03:28:15;;;;;;;2.30;0.40;;;20.00;99.90;;;19.51;75.29;100571.31;5009293;28;20033;-54
2021/07/10 03:30:41;;;;;;;2.03;0.40;;;20.10;99.90;;;19.50;75.34;100568.84;5009093;28;20041;-63
2021/07/10 03:33:07;;;;;;;3.30;0.55;;;20.10;99.90;;;19.51;75.10;100571.31;5009220;28;20532;-62
2021/07/10 03:35:33;;;;;;;2.80;0.40;;;20.10;99.90;;;19.60;74.71;100571.13;5009449;28;20405;-56
2021/07/10 03:37:59;;;;;;;0.60;0.30;;;20.10;99.90;;;19.68;74.37;100570.94;4991586;28;20076;-52
2021/07/10 03:40:27;;;;;;;0.60;0.40;;;20.20;99.90;;;19.72;74.25;100577.44;5009090;28;20129;-57
2021/07/10 03:42:54;;;;;;;3.25;0.32;;;20.30;99.90;;;19.76;73.97;100582.13;5009164;28;20101;-63
2021/07/10 03:45:20;;;;;;;2.08;0.35;;;20.30;99.90;;;19.73;74.24;100582.53;5009058;28;20033;-53
2021/07/10 03:47:48;;;;;;;4.00;0.82;;;20.30;99.90;;;19.78;74.12;100576.66;5009358;28;20084;-60
2021/07/10 03:50:15;;;;;;;0.68;0.45;;;20.30;99.90;;;19.87;74.07;100573.56;4991314;28;20069;-50
2021/07/10 03:52:43;;;;;;;2.35;0.47;;;20.40;99.90;;;19.95;73.90;100577.84;5009227;28;20052;-60
2021/07/10 03:55:11;;;;;;;1.60;0.88;;;20.50;99.90;;;20.02;73.64;100577.88;5008685;28;20041;-62
2021/07/10 03:57:38;;;;;;;1.65;0.40;;;20.50;99.90;;;20.01;74.08;100574.41;4991141;28;20374;-52
2021/07/10 04:00:16;;;;;;;3.20;0.45;;;20.60;99.90;;;20.09;73.84;100576.84;5008645;28;20030;-56
2021/07/10 04:02:43;;;;;;;1.55;0.40;;;20.70;99.90;;;20.13;73.46;100575.44;5008792;28;20044;-59
2021/07/10 04:05:12;;;;;;;0.82;0.40;;;20.80;99.90;;;20.16;73.71;100579.50;5007238;28;20042;-53
2021/07/10 04:07:39;;;;;;;3.70;0.30;;;20.80;99.90;;;20.26;73.43;100579.09;5008757;28;20041;-56
2021/07/10 04:10:08;;;;;;;2.53;0.32;;;20.90;99.90;;;20.28;73.52;100577.88;5008321;28;20026;-56
2021/07/10 04:12:34;;;;;;;1.77;0.50;;;21.00;99.90;;;21.42;70.27;100570.19;5007529;28;20044;-51
2021/07/10 04:15:02;;;;;;;4.00;0.40;;;21.80;99.90;;;23.37;64.06;100573.22;5008598;28;20026;-51
2021/07/10 04:17:30;;;;;;;7.72;0.50;;;24.00;99.90;;;24.79;59.72;100573.94;5008787;28;20064;-55
2021/07/10 04:19:59;;;;;;;3.00;0.60;;;26.00;97.90;;;25.98;56.15;100569.50;5008490;28;20037;-57
2021/07/10 04:22:26;;;;;;;1.25;0.40;;;27.50;93.70;;;26.85;54.02;100574.19;5008695;28;20044;-55
2021/07/10 04:24:52;;;;;;;1.60;0.50;;;28.60;90.50;;;27.35;52.63;100573.16;5008258;28;20127;-53
2021/07/10 04:27:18;;;;;;;4.22;0.50;;;29.40;84.20;;;27.60;51.76;100580.63;5008344;28;20040;-58
2021/07/10 04:29:48;;;;;;;1.33;0.68;;;29.80;80.30;;;28.34;49.62;100570.78;5008493;28;20405;-61
2021/07/10 04:32:17;;;;;;;1.35;0.40;;;30.40;76.60;;;28.72;48.97;100571.50;4990417;28;20034;-60
2021/07/10 04:34:43;;;;;;;1.17;0.50;;;31.00;73.70;;;29.21;47.91;100574.63;5008165;28;20527;-60
2021/07/10 04:37:09;;;;;;;2.85;0.40;;;31.70;69.90;;;29.60;46.76;100582.22;5008285;28;20030;-60
2021/07/10 04:39:35;;;;;;;1.00;0.40;;;32.20;67.00;;;30.25;44.82;100583.25;5008175;28;20366;-49
2021/07/10 04:42:06;;;;;;;0.70;0.38;;;32.70;64.50;;;30.64;43.60;100581.59;5008318;28;20074;-59
2021/07/10 04:44:32;;;;;;;2.42;0.40;;;33.20;62.10;;;30.86;43.46;100575.03;4990857;28;20792;-51
2021/07/10 04:46:59;;;;;;;3.45;0.40;;;33.70;60.20;;;31.09;42.86;100582.44;5008314;28;20041;-56
2021/07/10 04:49:25;;;;;;;1.05;0.40;;;34.10;58.40;;;31.33;41.88;100583.38;5008343;28;20029;-60
2021/07/10 04:51:51;;;;;;;3.00;0.30;;;34.40;57.30;;;31.67;40.86;100583.44;5008365;28;20088;-55
2021/07/10 04:54:17;;;;;;;1.88;0.40;;;34.80;56.00;;;31.73;40.59;100589.59;4989725;28;20056;-47
2021/07/10 04:56:43;;;;;;;0.57;0.20;;;35.10;55.40;;;32.25;39.03;100583.47;5007369;28;20133;-53
2021/07/10 04:59:09;;;;;;;2.70;0.45;;;35.50;53.30;;;32.98;37.27;100590.47;5007729;28;20400;-57
2021/07/10 05:01:34;;;;;;;2.88;0.40;;;35.70;52.80;;;32.75;38.22;100593.94;5007824;28;20037;-50
2021/07/10 05:04:00;;;;;;;1.00;0.30;;;35.90;52.70;;;32.43;38.81;100590.03;5010645;28;20046;-54
2021/07/10 05:06:26;;;;;;;2.80;0.40;;;36.10;51.70;;;33.17;37.61;100585.03;5027900;28;20041;-58
2021/07/10 05:08:52;;;;;;;5.85;0.47;;;36.40;51.30;;;32.96;38.57;100587.25;5017899;28;20054;-61
2021/07/10 05:11:18;;;;;;;3.13;0.70;;;36.70;51.20;;;32.77;38.64;100589.91;4989877;28;20037;-52
2021/07/10 05:13:44;;;;;;;9.13;1.45;;;36.50;50.70;;;33.05;37.92;100582.81;5007645;28;20061;-56
2021/07/10 05:16:10;;;;;;;8.15;0.40;;;36.60;50.00;;;32.79;37.75;100587.72;5007540;28;20454;-55
2021/07/10 05:18:36;;;;;;;2.65;0.30;;;36.60;49.80;;;32.95;37.04;100575.66;5005788;28;20041;-60
2021/07/10 05:21:02;;;;;;;2.35;0.70;;;36.80;49.00;;;33.13;36.20;100586.72;5010542;28;20575;-57
2021/07/10 05:23:28;;;;;;;1.40;0.40;;;37.20;47.20;;;33.22;36.09;100583.06;5026368;28;20679;-59
2021/07/10 05:25:57;;;;;;;3.97;0.45;;;37.20;47.70;;;33.66;35.26;100576.47;5026381;28;20112;-55
2021/07/10 05:28:23;;;;;;;3.03;0.30;;;37.30;47.20;;;33.79;34.85;100586.56;5021266;28;20034;-54
2021/07/10 05:30:50;;;;;;;5.57;0.40;;;37.50;46.50;;;34.18;33.67;100580.72;5025024;28;20397;-51
2021/07/10 05:33:19;;;;;;;2.35;0.30;;;38.20;46.10;;;33.61;34.41;100581.97;5006705;28;20033;-55
2021/07/10 05:35:45;;;;;;;1.95;0.35;;;38.40;44.80;;;33.46;34.28;100590.31;5009031;28;20124;-60
2021/07/10 05:38:17;;;;;;;1.58;0.30;;;37.50;46.30;;;33.44;34.45;100590.63;5025777;28;20037;-58
2021/07/10 05:40:43;;;;;;;2.65;0.20;;;37.50;45.50;;;33.75;33.75;100595.53;5004074;28;20527;-56
2021/07/10 05:43:10;;;;;;;0.52;0.20;;;37.90;44.70;;;34.16;32.82;100601.84;5026644;28;20412;-50
2021/07/10 05:45:36;;;;;;;5.13;0.20;;;38.00;43.90;;;34.40;31.86;100593.59;5027526;28;20042;-59
2021/07/10 05:48:02;;;;;;;2.88;0.30;;;38.50;43.50;;;34.18;32.50;100593.44;5008282;28;20081;-57
2021/07/10 05:50:28;;;;;;;3.70;0.30;;;38.40;43.50;;;34.76;31.94;100587.44;5023498;28;20131;-55
2021/07/10 05:52:54;;;;;;;1.05;0.20;;;38.90;43.20;;;35.06;30.99;100592.22;5025938;28;20061;-54
2021/07/10 05:55:20;;;;;;;0.60;0.20;;;39.30;42.50;;;35.35;30.52;100600.00;5026428;28;20054;-57
2021/07/10 05:57:46;;;;;;;3.35;0.30;;;39.70;42.10;;;35.41;30.97;100603.38;5020793;28;20034;-60
2021/07/10 06:00:13;;;;;;;1.92;0.28;;;39.80;41.90;;;35.50;31.08;100604.22;5018509;28;20038;-54
2021/07/10 06:02:39;;;;;;;1.00;0.50;;;40.10;41.80;;;35.10;31.47;100601.34;5025829;28;20045;-54
2021/07/10 06:05:08;;;;;;;2.17;0.40;;;39.90;41.70;;;35.50;30.76;100604.22;5026669;28;20082;-56
2021/07/10 06:07:34;;;;;;;1.80;0.17;;;39.80;41.60;;;36.11;29.46;100595.38;5024431;28;20034;-53
2021/07/10 06:10:00;;;;;;;0.47;0.17;;;40.20;41.20;;;36.21;29.39;100602.47;5021708;28;20030;-60
2021/07/10 06:12:26;;;;;;;3.17;0.20;;;40.50;40.60;;;36.58;28.99;100603.09;5008418;28;20033;-59
2021/07/10 06:14:52;;;;;;;1.45;0.20;;;40.90;40.30;;;36.49;29.30;100598.44;5026604;28;20400;-54
2021/07/10 06:17:17;;;;;;;0.55;0.20;;;41.00;40.00;;;36.48;28.78;100607.69;5025370;28;20072;-55
2021/07/10 06:19:43;;;;;;;2.30;0.20;;;41.10;39.30;;;36.03;29.29;100612.41;5023378;28;20045;-58
2021/07/10 06:22:12;;;;;;;6.00;0.50;;;40.60;40.20;;;36.11;29.52;100608.94;5006680;28;20057;-59
2021/07/10 06:24:37;;;;;;;0.63;0.20;;;40.50;40.10;;;36.47;28.73;100610.72;5007968;28;20029;-54
2021/07/10 06:27:04;;;;;;;0.70;0.20;;;40.90;39.60;;;36.78;27.97;100607.97;5015165;28;20496;-59
2021/07/10 06:29:30;;;;;;;3.35;0.20;;;41.30;39.40;;;36.43;28.12;100615.16;5026423;28;20452;-52
2021/07/10 06:31:55;;;;;;;2.15;0.20;;;41.10;38.90;;;36.50;27.68;100602.75;5011747;28;20038;-56
2021/07/10 06:34:21;;;;;;;1.88;0.20;;;41.00;38.40;;;36.64;27.67;100610.78;5008888;28;20046;-54
2021/07/10 06:36:50;;;;;;;0.77;0.17;;;41.10;38.40;;;36.85;26.86;100614.53;5010503;28;20460;-54
2021/07/10 06:39:16;;;;;;;1.10;0.20;;;41.40;37.90;;;37.01;27.23;100620.28;5010440;28;20124;-55
2021/07/10 06:41:45;;;;;;;1.05;0.10;;;41.60;38.30;;;37.17;27.21;100612.47;5008661;28;20057;-56
2021/07/10 06:44:11;;;;;;;0.40;0.10;;;41.90;38.00;;;37.28;27.41;100613.00;5012928;28;20053;-58
2021/07/10 06:46:36;;;;;;;1.98;0.20;;;41.90;37.80;;;37.30;26.68;100618.91;5012905;28;20345;-56
2021/07/10 06:49:03;;;;;;;2.03;0.10;;;42.00;37.60;;;37.63;26.70;100616.47;5006897;28;20052;-53
2021/07/10 06:51:29;;;;;;;3.08;0.30;;;42.30;37.30;;;37.46;26.62;100614.56;5028642;28;20484;-48
2021/07/10 06:53:58;;;;;;;1.63;0.20;;;42.30;37.30;;;37.53;26.60;100604.00;5017580;28;20092;-52
2021/07/10 06:56:24;;;;;;;2.78;0.20;;;42.70;36.90;;;37.61;26.13;100605.94;5028843;28;20119;-59
2021/07/10 06:58:50;;;;;;;1.10;0.20;;;42.70;36.30;;;37.20;26.62;100611.84;5028910;28;20045;-56
2021/07/10 07:01:15;;;;;;;0.50;0.10;;;42.30;36.80;;;37.34;26.54;100611.72;5029165;28;20136;-56
2021/07/10 07:03:41;;;;;;;1.00;0.20;;;42.50;37.00;;;37.14;26.84;100605.78;5029565;28;20456;-58
2021/07/10 07:06:07;;;;;;;1.90;0.20;;;42.20;37.10;;;37.39;26.21;100606.09;5029616;28;20044;-54
2021/07/10 07:08:33;;;;;;;4.05;0.10;;;42.20;36.80;;;37.30;26.01;100611.56;5029475;28;20037;-55
2021/07/10 07:10:59;;;;;;;1.45;0.10;;;42.20;36.10;;;37.05;25.07;100613.09;5029396;28;20037;-56
2021/07/10 07:13:30;;;;;;;0.20;0.10;;;42.10;35.70;;;36.69;25.38;100612.53;5029153;28;20473;-57
2021/07/10 07:15:56;;;;;;;1.27;0.10;;;41.70;36.00;;;36.63;25.42;100611.09;5029387;28;20071;-57
2021/07/10 07:18:22;;;;;;;2.40;0.20;;;41.40;36.20;;;35.55;26.88;100612.25;5029350;28;20053;-52
2021/07/10 07:20:48;;;;;;;1.50;0.20;;;39.90;38.00;;;34.16;29.53;100618.06;5029263;28;20715;-57
2021/07/10 07:23:14;;;;;;;0.73;0.10;;;37.00;41.80;;;33.20;31.08;100614.97;5029442;28;20025;-54
2021/07/10 07:25:40;;;;;;;0.63;0.10;;;35.20;44.60;;;32.35;32.96;100609.50;5029376;28;20446;-53
2021/07/10 07:28:07;;;;;;;2.03;0.20;;;33.90;46.40;;;31.91;33.93;100606.94;5029451;28;20152;-57
2021/07/10 07:30:34;;;;;;;7.30;0.20;;;33.20;47.60;;;31.72;34.23;100601.44;5028988;28;20048;-55
2021/07/10 07:33:04;;;;;;;0.50;0.20;;;32.70;48.70;;;31.58;34.58;100605.84;5029109;28;20043;-55
2021/07/10 07:35:30;;;;;;;0.52;0.20;;;32.30;49.20;;;31.52;34.51;100601.59;5007272;28;20026;-54
2021/07/10 07:37:56;;;;;;;2.33;0.17;;;32.20;49.00;;;31.45;34.15;100599.19;5023617;28;20461;-54
2021/07/10 07:40:22;;;;;;;2.45;0.20;;;32.20;49.00;;;31.44;34.08;100605.66;5014123;28;20049;-55
2021/07/10 07:42:49;;;;;;;8.95;0.20;;;32.10;49.00;;;31.14;34.60;100608.56;5009153;28;20046;-54
2021/07/10 07:45:17;;;;;;;3.47;0.20;;;31.90;49.20;;;31.20;35.13;100605.53;5016686;28;20665;-52
2021/07/10 07:47:45;;;;;;;1.05;0.20;;;31.80;50.40;;;31.15;34.54;100602.91;5028897;28;20160;-54
2021/07/10 07:50:14;;;;;;;1.95;0.20;;;31.70;49.80;;;31.39;35.24;100602.19;5028984;28;20049;-58
2021/07/10 07:52:40;;;;;;;0.80;0.10;;;31.80;50.30;;;31.59;34.27;100607.47;5028603;28;20112;-56
2021/07/10 07:55:10;;;;;;;1.10;0.15;;;32.10;50.10;;;31.53;34.53;100613.97;5028366;28;20551;-56
2021/07/10 07:57:44;;;;;;;1.95;0.20;;;32.10;50.20;;;31.63;34.85;100620.09;5028289;28;20038;-55
2021/07/10 08:00:19;;;;;;;0.73;0.10;;;32.10;50.20;;;31.75;34.92;100606.25;5028857;28;20029;-56
2021/07/10 08:02:49;;;;;;;2.70;0.20;;;32.20;50.70;;;31.80;34.12;100606.22;5028597;28;20100;-57
2021/07/10 08:05:16;;;;;;;1.95;0.30;;;32.30;49.80;;;31.66;34.12;100607.94;5028456;28;20116;-57
2021/07/10 08:07:43;;;;;;;1.15;0.15;;;32.20;49.80;;;31.71;33.85;100610.59;5028504;28;20418;-56
2021/07/10 08:10:14;;;;;;;2.33;0.20;;;32.20;49.90;;;31.84;33.98;100607.28;5010565;28;20037;-57
2021/07/10 08:12:50;;;;;;;1.98;0.13;;;32.30;49.70;;;31.93;33.33;100612.88;5027672;28;20422;-57
2021/07/10 08:15:19;;;;;;;0.35;0.10;;;32.40;49.50;;;32.02;34.14;100615.75;5011727;28;20051;-54
2021/07/10 08:17:48;;;;;;;6.10;0.20;;;32.40;49.80;;;32.29;33.39;100616.84;5028342;28;20069;-53
2021/07/10 08:20:16;;;;;;;1.77;0.20;;;32.60;50.00;;;32.25;34.07;100615.00;5028189;28;20123;-50
2021/07/10 08:22:43;;;;;;;1.95;0.20;;;32.60;49.90;;;32.32;33.53;100610.88;5028009;28;20045;-59
2021/07/10 08:25:10;;;;;;;2.90;0.30;;;32.80;49.80;;;31.97;33.72;100608.50;5028146;28;20036;-59
2021/07/10 08:27:44;;;;;;;0.45;0.20;;;32.60;49.50;;;32.10;34.43;100605.16;5027953;28;20341;-54
2021/07/10 08:30:13;;;;;;;1.88;0.20;;;32.60;50.40;;;32.46;33.42;100607.53;5028353;28;20504;-51
2021/07/10 08:32:39;;;;;;;2.95;0.20;;;32.70;50.00;;;32.67;33.44;100611.56;5028340;28;20540;-58
2021/07/10 08:35:06;;;;;;;4.57;0.20;;;33.00;49.70;;;32.47;33.47;100609.94;5027823;28;20042;-60
2021/07/10 08:37:32;;;;;;;0.50;0.20;;;32.90;49.40;;;32.13;33.16;100611.88;5028207;28;20069;-55
2021/07/10 08:39:58;;;;;;;1.77;0.20;;;32.70;48.40;;;31.71;33.82;100607.91;5028203;28;20029;-56
2021/07/10 08:42:24;;;;;;;0.38;0.10;;;32.20;49.40;;;31.21;34.12;100612.53;5027980;28;20044;-56
2021/07/10 08:44:54;;;;;;;0.90;0.10;;;31.90;49.60;;;31.20;34.34;100610.13;5028202;28;20117;-58
2021/07/10 08:47:23;;;;;;;0.40;0.20;;;31.50;50.50;;;31.71;34.24;100607.09;5027779;28;20492;-57
2021/07/10 08:49:49;;;;;;;1.65;0.10;;;31.80;50.60;;;32.06;33.35;100611.41;5028195;28;20043;-56
2021/07/10 08:52:18;;;;;;;1.92;0.20;;;32.20;50.20;;;31.98;33.27;100613.63;5027787;28;20157;-53
2021/07/10 08:54:44;;;;;;;0.55;0.20;;;32.40;49.40;;;32.10;32.91;100610.56;5010105;28;20076;-58
2021/07/10 08:57:13;;;;;;;2.42;0.20;;;32.40;49.00;;;32.00;33.40;100613.34;5027702;28;20117;-59
2021/07/10 08:59:40;;;;;;;1.40;0.20;;;32.40;49.40;;;32.10;33.22;100615.94;5027637;28;20113;-60
2021/07/10 09:02:08;;;;;;;0.47;0.28;;;32.50;49.60;;;32.20;33.21;100612.31;5027444;28;20073;-56
2021/07/10 09:04:34;;;;;;;1.02;0.20;;;32.50;49.40;;;32.31;32.49;100622.75;5027738;28;20030;-60
2021/07/10 09:07:00;;;;;;;0.98;0.20;;;32.60;48.90;;;32.10;33.04;100623.22;5009515;28;20044;-60
2021/07/10 09:09:47;;;;;;;0.57;0.13;;;32.50;49.00;;;31.84;32.14;100620.75;5027499;28;20415;-57
2021/07/10 09:12:26;;;;;;;1.85;0.20;;;32.20;48.30;;;32.10;32.53;100618.66;5027557;28;20473;-58
2021/07/10 09:14:58;;;;;;;0.68;0.20;;;32.20;49.20;;;32.04;32.34;100619.78;5011468;28;20044;-57
2021/07/10 09:17:24;;;;;;;1.67;0.20;;;32.10;49.10;;;32.46;32.13;100610.22;5024009;28;20100;-55
2021/07/10 09:19:52;;;;;;;1.70;0.20;;;32.50;49.40;;;32.14;31.79;100608.09;5025696;28;20051;-55
2021/07/10 09:22:30;;;;;;;0.70;0.13;;;32.40;48.30;;;32.11;31.17;100609.47;5025585;28;20346;-58
2021/07/10 09:24:58;;;;;;;0.60;0.20;;;32.50;47.90;;;32.30;31.26;100604.97;5027421;28;20096;-57
2021/07/10 09:27:25;;;;;;;0.40;0.10;;;32.50;47.70;;;32.24;31.01;100602.63;5027368;28;20370;-59
2021/07/10 09:29:51;;;;;;;0.55;0.10;;;32.50;47.70;;;32.06;30.93;100587.97;5027274;28;20508;-59
2021/07/10 09:32:23;;;;;;;1.83;0.20;;;32.40;47.30;;;32.23;30.52;100593.72;5027568;28;20107;-59
2021/07/10 09:34:53;;;;;;;0.30;0.10;;;32.40;47.20;;;31.98;30.91;100597.47;5027545;28;20029;-59
2021/07/10 09:37:26;;;;;;;0.70;0.20;;;32.40;47.20;;;31.84;30.44;100588.41;5009595;28;20124;-57
2021/07/10 09:40:02;;;;;;;1.50;0.10;;;32.20;46.70;;;32.25;29.69;100586.16;5027426;28;20041;-58
2021/07/10 09:42:38;;;;;;;1.75;0.10;;;32.40;46.70;;;32.74;29.22;100584.25;5027287;28;20033;-57
2021/07/10 09:45:14;;;;;;;1.48;0.10;;;32.80;46.10;;;32.57;29.68;100582.84;5027526;28;20128;-58
2021/07/10 09:47:41;;;;;;;0.32;0.10;;;32.90;45.90;;;32.47;29.31;100591.06;5026919;28;20025;-60
2021/07/10 09:50:09;;;;;;;1.38;0.20;;;32.70;45.90;;;31.96;28.06;100583.47;5025366;28;20047;-62
2021/07/10 09:52:39;;;;;;;1.38;0.15;;;32.70;44.60;;;32.09;28.37;100578.50;5025155;28;20037;-61
2021/07/10 09:55:07;;;;;;;0.70;0.20;;;32.30;44.30;;;32.36;28.42;100581.47;5007127;28;20046;-59
2021/07/10 09:57:38;;;;;;;1.65;0.20;;;32.50;44.70;;;32.16;27.44;100581.63;5007481;28;20129;-61
2021/07/10 10:00:18;;;;;;;4.32;0.30;;;32.30;43.60;;;31.78;28.10;100586.03;5004197;28;20040;-60
2021/07/10 10:02:45;;;;;;;1.70;0.20;;;32.10;43.80;;;32.40;27.66;100585.19;5000262;28;20439;-62
2021/07/10 10:05:15;;;;;;;0.28;0.15;;;32.40;44.10;;;32.48;27.64;100592.66;5011161;28;20049;-61
2021/07/10 10:07:49;;;;;;;0.50;0.10;;;32.50;44.40;;;31.62;28.08;100596.13;5006526;28;20034;-60
2021/07/10 10:10:28;;;;;;;0.47;0.10;;;32.20;44.40;;;31.91;27.52;100577.31;5010064;28;20132;-60
2021/07/10 10:13:17;;;;;;;0.40;0.20;;;32.00;43.70;;;32.35;27.57;100579.84;5011787;28;20069;-59
2021/07/10 10:15:54;;;;;;;3.40;0.20;;;32.30;44.40;;;31.97;27.07;100582.38;5011457;28;20576;-61